Time;durP1;ratioP1;P1;durP2;ratioP2;P2;SDS_P1;SDS_P2;PMS_P1;PMS_P2;Temp;Humidity;BMP_temperature;BMP_pressure;BME280_temperature;BME280_humidity;BME280_pressure;Samples;Min_cycle;Max_cycle;Signal;HPM_P1;HPM_P2
2023/03/01 00:01:27;;;;;;;;;;;;;;;;;;6196034;23;19914;-82
2023/03/01 00:03:52;;;;;;;;;;;;;;;;;;6173819;23;19908;-82
2023/03/01 00:06:18;;;;;;;;;;;;;;;;;;6201355;23;19951;-82
2023/03/01 00:08:43;;;;;;;;;;;;;;;;;;6149425;23;19916;-82
2023/03/01 00:11:09;;;;;;;;;;;;;;;;;;6199621;23;20397;-82
2023/03/01 00:13:34;;;;;;;;;;;;;;;;;;6198142;23;20335;-82
2023/03/01 00:16:00;;;;;;;;;;;;;;;;;;6151271;23;19912;-82
2023/03/01 00:18:25;;;;;;;;;;;;;;;;;;6203846;23;19939;-80
2023/03/01 00:20:51;;;;;;;;;;;;;;;;;;6177643;23;19956;-81
2023/03/01 00:23:16;;;;;;;;;;;;;;;;;;6177090;23;19912;-83
2023/03/01 00:25:42;;;;;;;;;;;;;;;;;;6201921;23;20449;-80
2023/03/01 00:28:07;;;;;;;;;;;;;;;;;;6202162;23;19914;-82
2023/03/01 00:30:32;;;;;;;;;;;;;;;;;;6174307;23;19915;-83
2023/03/01 00:32:58;;;;;;;;;;;;;;;;;;6199114;23;19912;-80
2023/03/01 00:35:23;;;;;;;;;;;;;;;;;;6197537;23;19908;-82
2023/03/01 00:37:57;;;;;;;;;;;;;;;;;;6148329;23;19908;-81
2023/03/01 00:40:22;;;;;;;;;;;;;;;;;;6175545;23;19908;-81
2023/03/01 00:42:48;;;;;;;;;;;;;;;;;;6202802;23;19952;-82
2023/03/01 00:45:13;;;;;;;;;;;;;;;;;;6152071;23;19936;-82
2023/03/01 00:47:38;;;;;;;;;;;;;;;;;;6201029;23;19918;-82
2023/03/01 00:50:04;;;;;;;;;;;;;;;;;;6201181;23;19928;-82
2023/03/01 00:52:29;;;;;;;;;;;;;;;;;;6176714;23;19920;-82
2023/03/01 00:54:55;;;;;;;;;;;;;;;;;;6177655;23;19916;-82
2023/03/01 00:57:20;;;;;;;;;;;;;;;;;;6177791;23;20033;-82
2023/03/01 00:59:45;;;;;;;;;;;;;;;;;;6178355;23;19909;-81
2023/03/01 01:02:11;;;;;;;;;;;;;;;;;;6179668;23;19936;-81
2023/03/01 01:04:37;;;;;;;;;;;;;;;;;;6153333;23;19916;-81
2023/03/01 01:07:02;;;;;;;;;;;;;;;;;;6204791;23;19916;-81
2023/03/01 01:09:28;;;;;;;;;;;;;;;;;;6205161;23;19932;-81
2023/03/01 01:11:53;;;;;;;;;;;;;;;;;;6176765;23;19909;-82
2023/03/01 01:14:18;;;;;;;;;;;;;;;;;;6204384;23;19909;-82
2023/03/01 01:16:44;;;;;;;;;;;;;;;;;;6204654;23;19939;-81
2023/03/01 01:19:09;;;;;;;;;;;;;;;;;;6182770;23;20227;-82
2023/03/01 01:21:36;;;;;;;;;;;;;;;;;;6208582;23;19908;-83
2023/03/01 01:24:01;;;;;;;;;;;;;;;;;;6208603;23;19911;-81
2023/03/01 01:26:26;;;;;;;;;;;;;;;;;;6181625;23;19912;-80
2023/03/01 01:28:52;;;;;;;;;;;;;;;;;;6182077;23;19909;-82
2023/03/01 01:31:17;;;;;;;;;;;;;;;;;;6208653;23;19908;-80
2023/03/01 01:33:43;;;;;;;;;;;;;;;;;;6179371;23;19914;-82
2023/03/01 01:36:08;;;;;;;;;;;;;;;;;;6175559;23;19908;-79
2023/03/01 01:38:34;;;;;;;;;;;;;;;;;;6202406;23;19931;-82
2023/03/01 01:40:59;;;;;;;;;;;;;;;;;;6180432;23;20409;-83
2023/03/01 01:43:25;;;;;;;;;;;;;;;;;;6131864;23;19956;-81
2023/03/01 01:45:50;;;;;;;;;;;;;;;;;;6182314;23;19923;-81
2023/03/01 01:48:16;;;;;;;;;;;;;;;;;;6180436;23;19936;-82
2023/03/01 01:50:44;;;;;;;;;;;;;;;;;;6180468;23;19908;-82
2023/03/01 01:53:10;;;;;;;;;;;;;;;;;;6180776;23;19912;-81
2023/03/01 01:55:35;;;;;;;;;;;;;;;;;;6156800;23;19942;-82
2023/03/01 01:58:00;;;;;;;;;;;;;;;;;;6181889;23;19909;-81
2023/03/01 02:00:26;;;;;;;;;;;;;;;;;;6182570;23;19908;-83
2023/03/01 02:02:51;;;;;;;;;;;;;;;;;;6181805;23;19914;-82
2023/03/01 02:05:17;;;;;;;;;;;;;;;;;;6207454;23;19913;-81
2023/03/01 02:07:42;;;;;;;;;;;;;;;;;;6179177;23;19909;-82
2023/03/01 02:10:08;;;;;;;;;;;;;;;;;;6205381;23;19930;-81
2023/03/01 02:12:33;;;;;;;;;;;;;;;;;;6205701;23;19908;-81
2023/03/01 02:14:59;;;;;;;;;;;;;;;;;;6155698;23;20193;-80
2023/03/01 02:17:25;;;;;;;;;;;;;;;;;;6207038;23;19908;-82
2023/03/01 02:19:50;;;;;;;;;;;;;;;;;;6180902;23;19912;-81
2023/03/01 02:22:16;;;;;;;;;;;;;;;;;;6181141;23;19934;-82
2023/03/01 02:24:42;;;;;;;;;;;;;;;;;;6178827;23;19908;-82
2023/03/01 02:27:07;;;;;;;;;;;;;;;;;;6179409;23;19908;-81
2023/03/01 02:29:33;;;;;;;;;;;;;;;;;;6152364;23;19951;-82
2023/03/01 02:31:58;;;;;;;;;;;;;;;;;;6178008;23;19955;-81
2023/03/01 02:34:25;;;;;;;;;;;;;;;;;;6154122;23;19931;-80
2023/03/01 02:36:51;;;;;;;;;;;;;;;;;;6151055;23;19912;-82
2023/03/01 02:39:16;;;;;;;;;;;;;;;;;;6203128;23;20350;-81
2023/03/01 02:41:42;;;;;;;;;;;;;;;;;;6176887;23;19915;-82
2023/03/01 02:44:08;;;;;;;;;;;;;;;;;;6153026;23;19909;-83
2023/03/01 02:46:34;;;;;;;;;;;;;;;;;;6153158;23;19908;-82
2023/03/01 02:48:59;;;;;;;;;;;;;;;;;;6178926;23;19928;-81
2023/03/01 02:51:25;;;;;;;;;;;;;;;;;;6150375;23;19908;-81
2023/03/01 02:53:51;;;;;;;;;;;;;;;;;;6151427;23;19912;-82
2023/03/01 02:56:17;;;;;;;;;;;;;;;;;;6128051;23;19947;-82
2023/03/01 02:58:44;;;;;;;;;;;;;;;;;;6176267;23;19908;-82
2023/03/01 03:01:11;;;;;;;;;;;;;;;;;;6176411;23;19909;-82
2023/03/01 03:03:36;;;;;;;;;;;;;;;;;;6203045;23;19952;-82
2023/03/01 03:06:02;;;;;;;;;;;;;;;;;;6150662;23;19939;-83
2023/03/01 03:08:29;;;;;;;;;;;;;;;;;;6149671;23;19908;-82
2023/03/01 03:10:54;;;;;;;;;;;;;;;;;;6172618;23;19908;-82
2023/03/01 03:13:21;;;;;;;;;;;;;;;;;;6172159;23;19916;-83
2023/03/01 03:15:47;;;;;;;;;;;;;;;;;;6200920;23;19915;-81
2023/03/01 03:18:12;;;;;;;;;;;;;;;;;;6174817;23;19908;-81
2023/03/01 03:20:38;;;;;;;;;;;;;;;;;;6174568;23;19908;-83
2023/03/01 03:23:03;;;;;;;;;;;;;;;;;;6150680;23;19939;-82
2023/03/01 03:25:29;;;;;;;;;;;;;;;;;;6148441;23;19912;-82
2023/03/01 03:27:56;;;;;;;;;;;;;;;;;;6180292;23;19943;-82
2023/03/01 03:30:21;;;;;;;;;;;;;;;;;;6204657;23;19908;-83
2023/03/01 03:32:53;;;;;;;;;;;;;;;;;;6177097;23;19908;-81
2023/03/01 03:35:19;;;;;;;;;;;;;;;;;;6151602;23;19954;-82
2023/03/01 03:38:03;;;;;;;;;;;;;;;;;;6127951;23;20366;-82
2023/03/01 03:40:28;;;;;;;;;;;;;;;;;;6179450;23;19973;-82
2023/03/01 03:42:54;;;;;;;;;;;;;;;;;;6187362;23;19896;-82
2023/03/01 03:45:20;;;;;;;;;;;;;;;;;;6161942;23;20010;-82
2023/03/01 03:47:45;;;;;;;;;;;;;;;;;;6159603;23;19908;-80
2023/03/01 03:50:11;;;;;;;;;;;;;;;;;;6182580;23;19908;-82
2023/03/01 03:52:36;;;;;;;;;;;;;;;;;;6208413;23;19913;-82
2023/03/01 03:55:02;;;;;;;;;;;;;;;;;;6205773;23;19956;-82
2023/03/01 03:57:27;;;;;;;;;;;;;;;;;;6204708;23;19908;-81
2023/03/01 03:59:52;;;;;;;;;;;;;;;;;;6179946;23;19960;-82
2023/03/01 04:02:21;;;;;;;;;;;;;;;;;;6181704;23;19908;-82
2023/03/01 04:04:49;;;;;;;;;;;;;;;;;;6178481;23;19916;-82
2023/03/01 04:07:14;;;;;;;;;;;;;;;;;;6176022;23;19940;-81
2023/03/01 04:09:42;;;;;;;;;;;;;;;;;;6205305;23;19919;-82
2023/03/01 04:12:07;;;;;;;;;;;;;;;;;;6179063;23;19908;-82
2023/03/01 04:14:33;;;;;;;;;;;;;;;;;;6205891;23;19947;-82
2023/03/01 04:16:58;;;;;;;;;;;;;;;;;;6156782;23;19908;-82
2023/03/01 04:19:24;;;;;;;;;;;;;;;;;;6183673;23;19932;-81
2023/03/01 04:21:49;;;;;;;;;;;;;;;;;;6183959;23;19915;-81
2023/03/01 04:24:15;;;;;;;;;;;;;;;;;;6137454;23;19908;-82
2023/03/01 04:26:40;;;;;;;;;;;;;;;;;;6185406;23;19908;-82
2023/03/01 04:29:06;;;;;;;;;;;;;;;;;;6186068;23;19892;-81
2023/03/01 04:31:31;;;;;;;;;;;;;;;;;;6212062;23;19932;-82
2023/03/01 04:33:57;;;;;;;;;;;;;;;;;;6178851;23;19928;-81
2023/03/01 04:36:22;;;;;;;;;;;;;;;;;;6177520;23;19908;-81
2023/03/01 04:38:48;;;;;;;;;;;;;;;;;;6176901;23;19979;-81
2023/03/01 04:41:14;;;;;;;;;;;;;;;;;;6177938;23;19908;-81
2023/03/01 04:43:39;;;;;;;;;;;;;;;;;;6204795;23;19908;-81
2023/03/01 04:46:05;;;;;;;;;;;;;;;;;;6153136;23;20413;-81
2023/03/01 04:48:31;;;;;;;;;;;;;;;;;;6177961;23;19972;-82
2023/03/01 04:50:57;;;;;;;;;;;;;;;;;;6177456;23;19909;-81
2023/03/01 04:53:22;;;;;;;;;;;;;;;;;;6202802;23;19908;-82
2023/03/01 04:55:47;;;;;;;;;;;;;;;;;;6156524;23;19932;-82
2023/03/01 04:58:13;;;;;;;;;;;;;;;;;;6211228;23;19916;-83
2023/03/01 05:00:38;;;;;;;;;;;;;;;;;;6210666;23;19939;-82
2023/03/01 05:03:04;;;;;;;;;;;;;;;;;;6210300;23;19991;-83
2023/03/01 05:05:29;;;;;;;;;;;;;;;;;;6211661;23;19919;-82
2023/03/01 05:07:54;;;;;;;;;;;;;;;;;;6182443;23;19908;-82
2023/03/01 05:10:20;;;;;;;;;;;;;;;;;;6156811;23;19908;-81
2023/03/01 05:12:46;;;;;;;;;;;;;;;;;;6204883;23;19915;-82
2023/03/01 05:15:11;;;;;;;;;;;;;;;;;;6204641;23;19987;-82
2023/03/01 05:17:37;;;;;;;;;;;;;;;;;;6178218;23;19909;-82
2023/03/01 05:20:07;;;;;;;;;;;;;;;;;;6153767;23;19908;-81
2023/03/01 05:22:33;;;;;;;;;;;;;;;;;;6150216;23;19987;-81
2023/03/01 05:24:58;;;;;;;;;;;;;;;;;;6175190;23;19920;-81
2023/03/01 05:27:24;;;;;;;;;;;;;;;;;;6204849;23;20326;-82
2023/03/01 05:29:49;;;;;;;;;;;;;;;;;;6154911;23;19915;-81
2023/03/01 05:32:15;;;;;;;;;;;;;;;;;;6183630;23;19932;-83
2023/03/01 05:34:41;;;;;;;;;;;;;;;;;;6184475;23;19904;-82
2023/03/01 05:37:07;;;;;;;;;;;;;;;;;;6184281;23;19920;-82
2023/03/01 05:39:32;;;;;;;;;;;;;;;;;;6210789;23;19915;-82
2023/03/01 05:41:58;;;;;;;;;;;;;;;;;;6209907;23;19892;-83
2023/03/01 05:44:23;;;;;;;;;;;;;;;;;;6208674;23;19908;-81
2023/03/01 05:46:49;;;;;;;;;;;;;;;;;;6210714;23;19896;-83
2023/03/01 05:49:16;;;;;;;;;;;;;;;;;;6160050;23;21760;-82
2023/03/01 05:51:42;;;;;;;;;;;;;;;;;;6200492;23;19923;-77
2023/03/01 05:54:08;;;;;;;;;;;;;;;;;;6139193;23;19913;-78
2023/03/01 05:56:34;;;;;;;;;;;;;;;;;;6166614;23;20418;-77
2023/03/01 05:58:59;;;;;;;;;;;;;;;;;;6168064;23;19908;-77
2023/03/01 06:01:25;;;;;;;;;;;;;;;;;;6162558;23;20349;-76
2023/03/01 06:03:50;;;;;;;;;;;;;;;;;;6112002;23;19912;-76
2023/03/01 06:06:16;;;;;;;;;;;;;;;;;;6109939;23;19943;-76
2023/03/01 06:08:42;;;;;;;;;;;;;;;;;;6110709;23;19928;-77
2023/03/01 06:11:07;;;;;;;;;;;;;;;;;;6111067;23;19916;-79
2023/03/01 06:13:33;;;;;;;;;;;;;;;;;;6112618;23;19972;-76
2023/03/01 06:15:58;;;;;;;;;;;;;;;;;;6087841;23;20332;-79
2023/03/01 06:18:24;;;;;;;;;;;;;;;;;;6112068;23;19975;-77
2023/03/01 06:20:49;;;;;;;;;;;;;;;;;;6112871;23;19915;-78
2023/03/01 06:23:15;;;;;;;;;;;;;;;;;;6111049;23;19960;-77
2023/03/01 06:25:40;;;;;;;;;;;;;;;;;;6111616;23;19988;-77
2023/03/01 06:28:06;;;;;;;;;;;;;;;;;;6136732;23;19912;-79
2023/03/01 06:30:32;;;;;;;;;;;;;;;;;;6139035;23;20308;-77
2023/03/01 06:33:01;;;;;;;;;;;;;;;;;;6111810;23;19909;-78
2023/03/01 06:35:29;;;;;;;;;;;;;;;;;;6113090;23;19966;-76
2023/03/01 06:37:55;;;;;;;;;;;;;;;;;;6088291;23;19912;-76
2023/03/01 06:40:21;;;;;;;;;;;;;;;;;;6137295;23;19940;-76
2023/03/01 06:42:47;;;;;;;;;;;;;;;;;;6136822;23;19908;-76
2023/03/01 06:45:12;;;;;;;;;;;;;;;;;;6112455;23;19936;-77
2023/03/01 06:47:38;;;;;;;;;;;;;;;;;;6138563;23;19916;-77
2023/03/01 06:50:03;;;;;;;;;;;;;;;;;;6111113;23;19916;-76
2023/03/01 06:52:29;;;;;;;;;;;;;;;;;;6138158;23;20386;-80
2023/03/01 06:54:55;;;;;;;;;;;;;;;;;;6110193;23;20327;-76
2023/03/01 06:57:20;;;;;;;;;;;;;;;;;;6111958;23;19915;-76
2023/03/01 06:59:46;;;;;;;;;;;;;;;;;;6110126;23;19909;-76
2023/03/01 07:02:12;;;;;;;;;;;;;;;;;;6137052;23;19984;-75
2023/03/01 07:04:37;;;;;;;;;;;;;;;;;;6108996;23;19953;-76
2023/03/01 07:07:03;;;;;;;;;;;;;;;;;;6108689;23;19909;-77
2023/03/01 07:09:28;;;;;;;;;;;;;;;;;;6086514;23;19913;-77
2023/03/01 07:11:54;;;;;;;;;;;;;;;;;;6106576;23;19913;-76
2023/03/01 07:14:20;;;;;;;;;;;;;;;;;;6081230;23;19909;-75
2023/03/01 07:16:45;;;;;;;;;;;;;;;;;;6128582;23;19927;-76
2023/03/01 07:19:11;;;;;;;;;;;;;;;;;;6131614;23;19909;-76
2023/03/01 07:21:38;;;;;;;;;;;;;;;;;;6104137;23;19908;-76
2023/03/01 07:24:04;;;;;;;;;;;;;;;;;;6080325;23;19909;-77
2023/03/01 07:26:29;;;;;;;;;;;;;;;;;;6129754;23;19919;-77
2023/03/01 07:28:55;;;;;;;;;;;;;;;;;;6129313;23;19968;-78
2023/03/01 07:31:21;;;;;;;;;;;;;;;;;;6103491;23;19916;-76
2023/03/01 07:33:47;;;;;;;;;;;;;;;;;;6104194;23;20302;-77
2023/03/01 07:36:12;;;;;;;;;;;;;;;;;;6128890;23;19940;-77
2023/03/01 07:38:38;;;;;;;;;;;;;;;;;;6129752;23;19919;-77
2023/03/01 07:41:03;;;;;;;;;;;;;;;;;;6102367;23;20035;-76
2023/03/01 07:43:29;;;;;;;;;;;;;;;;;;6102434;23;19909;-78
2023/03/01 07:45:54;;;;;;;;;;;;;;;;;;6128535;23;19917;-77
2023/03/01 07:48:20;;;;;;;;;;;;;;;;;;6079558;23;19937;-78
2023/03/01 07:50:47;;;;;;;;;;;;;;;;;;6101960;23;19916;-77
2023/03/01 07:53:12;;;;;;;;;;;;;;;;;;6126898;23;19913;-77
2023/03/01 07:55:38;;;;;;;;;;;;;;;;;;6078448;23;19959;-77
2023/03/01 07:58:04;;;;;;;;;;;;;;;;;;6103151;23;19909;-78
2023/03/01 08:00:29;;;;;;;;;;;;;;;;;;6101739;23;19909;-77
2023/03/01 08:02:55;;;;;;;;;;;;;;;;;;6077967;23;19961;-78
2023/03/01 08:05:22;;;;;;;;;;;;;;;;;;6102904;23;19913;-76
2023/03/01 08:07:47;;;;;;;;;;;;;;;;;;6103815;23;19928;-78
2023/03/01 08:10:13;;;;;;;;;;;;;;;;;;6078846;23;19916;-76
2023/03/01 08:12:39;;;;;;;;;;;;;;;;;;6078083;23;19920;-77
2023/03/01 08:15:04;;;;;;;;;;;;;;;;;;6102142;23;19960;-78
2023/03/01 08:17:30;;;;;;;;;;;;;;;;;;6102148;23;19916;-77
2023/03/01 08:19:55;;;;;;;;;;;;;;;;;;6077727;23;19909;-78
2023/03/01 08:22:21;;;;;;;;;;;;;;;;;;6126483;23;19909;-77
2023/03/01 08:24:46;;;;;;;;;;;;;;;;;;6102447;23;19961;-76
2023/03/01 08:27:13;;;;;;;;;;;;;;;;;;6101487;23;20375;-76
2023/03/01 08:29:38;;;;;;;;;;;;;;;;;;6101806;23;19944;-76
2023/03/01 08:32:04;;;;;;;;;;;;;;;;;;6101772;23;19920;-77
2023/03/01 08:34:35;;;;;;;;;;;;;;;;;;6078178;23;19916;-79
2023/03/01 08:37:00;;;;;;;;;;;;;;;;;;6103422;23;19909;-78
2023/03/01 08:39:26;;;;;;;;;;;;;;;;;;6104885;23;19932;-77
2023/03/01 08:41:52;;;;;;;;;;;;;;;;;;6080760;23;19916;-77
2023/03/01 08:44:17;;;;;;;;;;;;;;;;;;6079328;23;19909;-79
2023/03/01 08:46:43;;;;;;;;;;;;;;;;;;6104053;23;19913;-76
2023/03/01 08:49:09;;;;;;;;;;;;;;;;;;6104294;23;19992;-79
2023/03/01 08:51:36;;;;;;;;;;;;;;;;;;6129001;23;19924;-79
2023/03/01 08:54:02;;;;;;;;;;;;;;;;;;6103908;23;19945;-77
2023/03/01 08:56:27;;;;;;;;;;;;;;;;;;6103452;23;19916;-78
2023/03/01 08:58:53;;;;;;;;;;;;;;;;;;6105039;23;19909;-77
2023/03/01 09:01:18;;;;;;;;;;;;;;;;;;6079606;23;19991;-77
2023/03/01 09:03:44;;;;;;;;;;;;;;;;;;6129044;23;19928;-77
2023/03/01 09:06:09;;;;;;;;;;;;;;;;;;6102792;23;19917;-77
2023/03/01 09:08:35;;;;;;;;;;;;;;;;;;6103323;23;19909;-77
2023/03/01 09:11:00;;;;;;;;;;;;;;;;;;6126424;23;20254;-78
2023/03/01 09:13:27;;;;;;;;;;;;;;;;;;6127653;23;19933;-78
2023/03/01 09:15:52;;;;;;;;;;;;;;;;;;6128058;23;19909;-78
2023/03/01 09:18:18;;;;;;;;;;;;;;;;;;6128830;23;19960;-78
2023/03/01 09:20:43;;;;;;;;;;;;;;;;;;6128172;23;19952;-77
2023/03/01 09:23:09;;;;;;;;;;;;;;;;;;6126509;23;20407;-78
2023/03/01 09:25:34;;;;;;;;;;;;;;;;;;6127939;23;19921;-81
2023/03/01 09:28:00;;;;;;;;;;;;;;;;;;6078041;23;19962;-79
2023/03/01 09:30:26;;;;;;;;;;;;;;;;;;6128507;23;19916;-80
2023/03/01 09:32:52;;;;;;;;;;;;;;;;;;6102419;23;19916;-78
2023/03/01 09:35:19;;;;;;;;;;;;;;;;;;6126675;23;19904;-78
2023/03/01 09:37:45;;;;;;;;;;;;;;;;;;6078711;23;19944;-78
2023/03/01 09:40:10;;;;;;;;;;;;;;;;;;6078310;23;20185;-78
2023/03/01 09:42:36;;;;;;;;;;;;;;;;;;6102462;23;19913;-80
2023/03/01 09:45:01;;;;;;;;;;;;;;;;;;6102731;23;19920;-78
2023/03/01 09:47:26;;;;;;;;;;;;;;;;;;6102286;23;20362;-77
2023/03/01 09:49:52;;;;;;;;;;;;;;;;;;6101004;23;19909;-76
2023/03/01 09:52:19;;;;;;;;;;;;;;;;;;6127362;23;19959;-78
2023/03/01 09:54:44;;;;;;;;;;;;;;;;;;6127580;23;19932;-77
2023/03/01 09:57:10;;;;;;;;;;;;;;;;;;6127467;23;20077;-80
2023/03/01 09:59:35;;;;;;;;;;;;;;;;;;6127155;23;19931;-79
2023/03/01 10:02:00;;;;;;;;;;;;;;;;;;6126797;23;19921;-80
2023/03/01 10:04:26;;;;;;;;;;;;;;;;;;6127113;23;19964;-77
2023/03/01 10:06:51;;;;;;;;;;;;;;;;;;6125051;23;19971;-77
2023/03/01 10:09:17;;;;;;;;;;;;;;;;;;6101128;23;19916;-82
2023/03/01 10:11:44;;;;;;;;;;;;;;;;;;6076497;23;19909;-79
2023/03/01 10:14:10;;;;;;;;;;;;;;;;;;6100930;23;19939;-80
2023/03/01 10:16:35;;;;;;;;;;;;;;;;;;6100643;23;19941;-80
2023/03/01 10:19:01;;;;;;;;;;;;;;;;;;6124820;23;19968;-78
2023/03/01 10:21:26;;;;;;;;;;;;;;;;;;6126419;23;19909;-81
2023/03/01 10:23:53;;;;;;;;;;;;;;;;;;6100545;23;20339;-80
2023/03/01 10:26:18;;;;;;;;;;;;;;;;;;6099503;23;20051;-78
2023/03/01 10:28:44;;;;;;;;;;;;;;;;;;6100444;23;20363;-81
2023/03/01 10:31:09;;;;;;;;;;;;;;;;;;6075987;23;20308;-80
2023/03/01 10:33:35;;;;;;;;;;;;;;;;;;6100021;23;19920;-78
2023/03/01 10:36:00;;;;;;;;;;;;;;;;;;6099965;23;20260;-78
2023/03/01 10:38:26;;;;;;;;;;;;;;;;;;6124087;23;19909;-80
2023/03/01 10:40:51;;;;;;;;;;;;;;;;;;6099709;23;19909;-81
2023/03/01 10:43:17;;;;;;;;;;;;;;;;;;6124112;23;19935;-81
2023/03/01 10:45:42;;;;;;;;;;;;;;;;;;6099454;23;19920;-80
2023/03/01 10:48:08;;;;;;;;;;;;;;;;;;6099549;23;19909;-79
2023/03/01 10:50:33;;;;;;;;;;;;;;;;;;6075471;23;19912;-80
2023/03/01 10:52:59;;;;;;;;;;;;;;;;;;6123887;23;19920;-79
2023/03/01 10:55:25;;;;;;;;;;;;;;;;;;6123762;23;19974;-81
2023/03/01 10:57:50;;;;;;;;;;;;;;;;;;6099474;23;19979;-79
2023/03/01 11:00:19;;;;;;;;;;;;;;;;;;6075427;23;19909;-82
2023/03/01 11:02:44;;;;;;;;;;;;;;;;;;6099239;23;19980;-81
2023/03/01 11:05:10;;;;;;;;;;;;;;;;;;6099215;23;19951;-81
2023/03/01 11:07:35;;;;;;;;;;;;;;;;;;6099512;23;19912;-81
2023/03/01 11:10:00;;;;;;;;;;;;;;;;;;6099250;23;20221;-81
2023/03/01 11:12:29;;;;;;;;;;;;;;;;;;6124127;23;20331;-81
2023/03/01 11:14:55;;;;;;;;;;;;;;;;;;6075180;23;19936;-79
2023/03/01 11:17:20;;;;;;;;;;;;;;;;;;6125244;23;19928;-81
2023/03/01 11:19:46;;;;;;;;;;;;;;;;;;6099402;23;20341;-81
2023/03/01 11:22:11;;;;;;;;;;;;;;;;;;6100022;23;19956;-79
2023/03/01 11:24:37;;;;;;;;;;;;;;;;;;6124521;23;19908;-78
2023/03/01 11:27:02;;;;;;;;;;;;;;;;;;6075649;23;20261;-81
2023/03/01 11:29:28;;;;;;;;;;;;;;;;;;6099390;23;19905;-81
2023/03/01 11:31:53;;;;;;;;;;;;;;;;;;6099871;23;19909;-80
2023/03/01 11:34:19;;;;;;;;;;;;;;;;;;6123772;23;19937;-80
2023/03/01 11:36:45;;;;;;;;;;;;;;;;;;6075251;23;19920;-80
2023/03/01 11:39:11;;;;;;;;;;;;;;;;;;6099450;23;19908;-80
2023/03/01 11:41:36;;;;;;;;;;;;;;;;;;6099407;23;19911;-78
2023/03/01 11:44:02;;;;;;;;;;;;;;;;;;6123930;23;19909;-78
2023/03/01 11:46:27;;;;;;;;;;;;;;;;;;6124764;23;20055;-77
2023/03/01 11:48:54;;;;;;;;;;;;;;;;;;6075899;23;19909;-77
2023/03/01 11:51:19;;;;;;;;;;;;;;;;;;6125881;23;19959;-81
2023/03/01 11:53:45;;;;;;;;;;;;;;;;;;6151713;23;20301;-87
2023/03/01 11:56:10;;;;;;;;;;;;;;;;;;6158664;23;20410;-87
2023/03/01 11:58:36;;;;;;;;;;;;;;;;;;6137604;23;19908;-88
2023/03/01 12:01:01;;;;;;;;;;;;;;;;;;6112981;23;19915;-87
2023/03/01 12:03:27;;;;;;;;;;;;;;;;;;6134126;23;20362;-86
2023/03/01 12:05:52;;;;;;;;;;;;;;;;;;6157934;23;20360;-88
2023/03/01 12:08:17;;;;;;;;;;;;;;;;;;6158493;23;19915;-88
2023/03/01 12:10:43;;;;;;;;;;;;;;;;;;6135025;23;19908;-86
2023/03/01 12:13:08;;;;;;;;;;;;;;;;;;6160603;23;20350;-86
2023/03/01 12:15:33;;;;;;;;;;;;;;;;;;6136554;23;19995;-86
2023/03/01 12:17:59;;;;;;;;;;;;;;;;;;6135999;23;19908;-88
2023/03/01 12:20:25;;;;;;;;;;;;;;;;;;6137931;23;20346;-86
2023/03/01 12:22:50;;;;;;;;;;;;;;;;;;6190014;23;20392;-86
2023/03/01 12:25:16;;;;;;;;;;;;;;;;;;6167903;23;19970;-84
2023/03/01 12:27:41;;;;;;;;;;;;;;;;;;6200705;23;19962;-85
2023/03/01 12:30:06;;;;;;;;;;;;;;;;;;6173755;23;19998;-86
2023/03/01 12:32:32;;;;;;;;;;;;;;;;;;6195595;23;19908;-86
2023/03/01 12:34:57;;;;;;;;;;;;;;;;;;6194513;23;19928;-84
2023/03/01 12:37:22;;;;;;;;;;;;;;;;;;6191678;23;19978;-87
2023/03/01 12:39:49;;;;;;;;;;;;;;;;;;6187079;23;20364;-86
2023/03/01 12:42:14;;;;;;;;;;;;;;;;;;6135057;23;19916;-87
2023/03/01 12:44:40;;;;;;;;;;;;;;;;;;6185660;23;19908;-87
2023/03/01 12:47:05;;;;;;;;;;;;;;;;;;6186081;23;20261;-86
2023/03/01 12:49:31;;;;;;;;;;;;;;;;;;6159747;23;19914;-85
2023/03/01 12:51:56;;;;;;;;;;;;;;;;;;6110101;23;20349;-86
2023/03/01 12:54:22;;;;;;;;;;;;;;;;;;6185701;23;19912;-86
2023/03/01 12:56:52;;;;;;;;;;;;;;;;;;6158844;23;19909;-87
2023/03/01 12:59:17;;;;;;;;;;;;;;;;;;6158818;23;19909;-86
2023/03/01 13:01:42;;;;;;;;;;;;;;;;;;6158628;23;20011;-87
2023/03/01 13:04:10;;;;;;;;;;;;;;;;;;6158683;23;20300;-86
2023/03/01 13:06:37;;;;;;;;;;;;;;;;;;6159143;23;19912;-85
2023/03/01 13:09:02;;;;;;;;;;;;;;;;;;6158955;23;19978;-85
2023/03/01 13:11:28;;;;;;;;;;;;;;;;;;6134279;23;20334;-86
2023/03/01 13:13:54;;;;;;;;;;;;;;;;;;6158957;23;20404;-85
2023/03/01 13:16:19;;;;;;;;;;;;;;;;;;6185356;23;19908;-85
2023/03/01 13:18:45;;;;;;;;;;;;;;;;;;6185447;23;20034;-84
2023/03/01 13:21:10;;;;;;;;;;;;;;;;;;6185627;23;19908;-84
2023/03/01 13:23:36;;;;;;;;;;;;;;;;;;6184890;23;19955;-86
2023/03/01 13:26:01;;;;;;;;;;;;;;;;;;6185368;23;20274;-85
2023/03/01 13:28:26;;;;;;;;;;;;;;;;;;6185707;23;20250;-85
2023/03/01 13:30:52;;;;;;;;;;;;;;;;;;6135214;23;19911;-85
2023/03/01 13:33:17;;;;;;;;;;;;;;;;;;6159521;23;19908;-85
2023/03/01 13:35:43;;;;;;;;;;;;;;;;;;6185711;23;19908;-84
2023/03/01 13:38:08;;;;;;;;;;;;;;;;;;6134923;23;19988;-85
2023/03/01 13:40:33;;;;;;;;;;;;;;;;;;6159352;23;19979;-84
2023/03/01 13:42:59;;;;;;;;;;;;;;;;;;6185685;23;20253;-84
2023/03/01 13:45:25;;;;;;;;;;;;;;;;;;6133356;23;19919;-84
2023/03/01 13:47:51;;;;;;;;;;;;;;;;;;6158426;23;19961;-83
2023/03/01 13:50:16;;;;;;;;;;;;;;;;;;6134126;23;19983;-84
2023/03/01 13:52:42;;;;;;;;;;;;;;;;;;6185029;23;19912;-84
2023/03/01 13:55:07;;;;;;;;;;;;;;;;;;6185604;23;19936;-84
2023/03/01 13:57:32;;;;;;;;;;;;;;;;;;6158967;23;20289;-83
2023/03/01 13:59:58;;;;;;;;;;;;;;;;;;6159424;23;19944;-85
2023/03/01 14:02:23;;;;;;;;;;;;;;;;;;6185145;23;19908;-85
2023/03/01 14:04:49;;;;;;;;;;;;;;;;;;6133940;23;20346;-84
2023/03/01 14:07:14;;;;;;;;;;;;;;;;;;6133776;23;19915;-85
2023/03/01 14:09:39;;;;;;;;;;;;;;;;;;6186081;23;19908;-84
2023/03/01 14:12:05;;;;;;;;;;;;;;;;;;6185369;23;19908;-84
2023/03/01 14:14:31;;;;;;;;;;;;;;;;;;6158906;23;19926;-85
2023/03/01 14:16:56;;;;;;;;;;;;;;;;;;6159090;23;19936;-85
2023/03/01 14:19:24;;;;;;;;;;;;;;;;;;6185007;23;19916;-84
2023/03/01 14:21:50;;;;;;;;;;;;;;;;;;6184808;23;19919;-85
2023/03/01 14:24:15;;;;;;;;;;;;;;;;;;6134350;23;19908;-86
2023/03/01 14:26:41;;;;;;;;;;;;;;;;;;6185128;23;19913;-85
2023/03/01 14:29:06;;;;;;;;;;;;;;;;;;6158267;23;19908;-86
2023/03/01 14:31:32;;;;;;;;;;;;;;;;;;6186302;23;19914;-86
2023/03/01 14:33:58;;;;;;;;;;;;;;;;;;6159304;23;19951;-84
2023/03/01 14:36:23;;;;;;;;;;;;;;;;;;6158333;23;19996;-85
2023/03/01 14:38:48;;;;;;;;;;;;;;;;;;6159065;23;19919;-84
2023/03/01 14:41:15;;;;;;;;;;;;;;;;;;6185899;23;19908;-84
2023/03/01 14:43:40;;;;;;;;;;;;;;;;;;6158660;23;19954;-85
2023/03/01 14:46:06;;;;;;;;;;;;;;;;;;6158228;23;20318;-84
2023/03/01 14:48:31;;;;;;;;;;;;;;;;;;6184138;23;19915;-84
2023/03/01 14:50:57;;;;;;;;;;;;;;;;;;6183872;23;19908;-84
2023/03/01 14:53:22;;;;;;;;;;;;;;;;;;6157757;23;20357;-84
2023/03/01 14:55:47;;;;;;;;;;;;;;;;;;6157572;23;20032;-82
2023/03/01 14:58:13;;;;;;;;;;;;;;;;;;6184184;23;19908;-85
2023/03/01 15:00:38;;;;;;;;;;;;;;;;;;6184498;23;20474;-84
2023/03/01 15:03:27;;;;;;;;;;;;;;;;;;6184980;23;19962;-85
2023/03/01 15:05:53;;;;;;;;;;;;;;;;;;6184042;23;19920;-85
2023/03/01 15:08:18;;;;;;;;;;;;;;;;;;6184478;23;19948;-85
2023/03/01 15:10:44;;;;;;;;;;;;;;;;;;6184619;23;19954;-84
2023/03/01 15:13:09;;;;;;;;;;;;;;;;;;6184378;23;19916;-84
2023/03/01 15:15:35;;;;;;;;;;;;;;;;;;6158304;23;19908;-84
2023/03/01 15:18:00;;;;;;;;;;;;;;;;;;6133806;23;20326;-84
2023/03/01 15:20:27;;;;;;;;;;;;;;;;;;6151526;23;19955;-83
2023/03/01 15:22:52;;;;;;;;;;;;;;;;;;6155421;23;19909;-84
2023/03/01 15:25:18;;;;;;;;;;;;;;;;;;6206413;23;19939;-83
2023/03/01 15:27:43;;;;;;;;;;;;;;;;;;6205723;23;19979;-82
2023/03/01 15:30:08;;;;;;;;;;;;;;;;;;6200724;23;20262;-83
2023/03/01 15:32:34;;;;;;;;;;;;;;;;;;6166043;23;19908;-81
2023/03/01 15:34:59;;;;;;;;;;;;;;;;;;6163423;23;19908;-80
2023/03/01 15:37:27;;;;;;;;;;;;;;;;;;6191133;23;19959;-79
2023/03/01 15:39:52;;;;;;;;;;;;;;;;;;6192465;23;19908;-81
2023/03/01 15:42:18;;;;;;;;;;;;;;;;;;6194670;23;19939;-83
2023/03/01 15:44:44;;;;;;;;;;;;;;;;;;6114384;23;19908;-88
2023/03/01 15:47:10;;;;;;;;;;;;;;;;;;6185180;23;19919;-88
2023/03/01 15:49:36;;;;;;;;;;;;;;;;;;6134396;23;19908;-88
2023/03/01 15:52:01;;;;;;;;;;;;;;;;;;6184911;23;19915;-87
2023/03/01 15:54:26;;;;;;;;;;;;;;;;;;6158012;23;19987;-85
2023/03/01 15:56:52;;;;;;;;;;;;;;;;;;6184840;23;19909;-86
2023/03/01 15:59:17;;;;;;;;;;;;;;;;;;6185945;23;19935;-86
2023/03/01 16:01:43;;;;;;;;;;;;;;;;;;6190374;23;20250;-83
2023/03/01 16:04:08;;;;;;;;;;;;;;;;;;6163604;23;19936;-85
2023/03/01 16:06:35;;;;;;;;;;;;;;;;;;6158526;23;19995;-88
2023/03/01 16:09:02;;;;;;;;;;;;;;;;;;6133785;23;19914;-87
2023/03/01 16:11:27;;;;;;;;;;;;;;;;;;6184079;23;19975;-87
2023/03/01 16:13:53;;;;;;;;;;;;;;;;;;6157792;23;20360;-88
2023/03/01 16:16:19;;;;;;;;;;;;;;;;;;6158058;23;19935;-87
2023/03/01 16:18:44;;;;;;;;;;;;;;;;;;6184937;23;19994;-88
2023/03/01 16:21:10;;;;;;;;;;;;;;;;;;6158852;23;20235;-87
2023/03/01 16:23:35;;;;;;;;;;;;;;;;;;6184578;23;19908;-88
2023/03/01 16:26:01;;;;;;;;;;;;;;;;;;6185415;23;19912;-88
2023/03/01 16:28:26;;;;;;;;;;;;;;;;;;6184551;23;20070;-88
2023/03/01 16:30:51;;;;;;;;;;;;;;;;;;6158283;23;19958;-88
2023/03/01 16:33:17;;;;;;;;;;;;;;;;;;6158712;23;20341;-88
2023/03/01 16:35:43;;;;;;;;;;;;;;;;;;6134486;23;20253;-88